createdAt,value
2022-12-22T00:02:20.818Z,37.78
2022-12-22T00:05:08.423Z,36.45
2022-12-22T00:07:53.875Z,35.92
2022-12-22T00:10:39.325Z,37.88
2022-12-22T00:13:28.199Z,41.60
2022-12-22T00:16:13.668Z,37.08
2022-12-22T00:18:59.527Z,41.05
2022-12-22T00:21:49.136Z,37.30
2022-12-22T00:24:34.845Z,38.40
2022-12-22T00:27:20.711Z,40.80
2022-12-22T00:32:54.998Z,40.78
2022-12-22T00:35:43.387Z,41.10
2022-12-22T00:38:37.841Z,38.53
2022-12-22T00:41:24.005Z,36.60
2022-12-22T00:44:09.558Z,38.88
2022-12-22T00:46:57.559Z,39.38
2022-12-22T00:49:45.099Z,39.85
2022-12-22T00:52:30.617Z,49.53
2022-12-22T00:55:16.575Z,38.28
2022-12-22T01:00:48.411Z,39.60
2022-12-22T01:03:34.205Z,43.13
2022-12-22T01:06:21.547Z,42.25
2022-12-22T01:09:07.544Z,41.65
2022-12-22T01:14:39.792Z,40.20
2022-12-22T01:17:25.053Z,39.97
2022-12-22T01:20:10.631Z,40.40
2022-12-22T01:22:56.237Z,44.38
2022-12-22T01:25:41.643Z,42.20
2022-12-22T01:28:34.627Z,41.53
2022-12-22T01:31:39.864Z,42.35
2022-12-22T01:34:27.348Z,36.20
2022-12-22T01:37:13.162Z,40.65
2022-12-22T01:39:58.572Z,53.60
2022-12-22T01:42:45.684Z,49.95
2022-12-22T01:45:43.473Z,55.65
2022-12-22T01:48:37.707Z,49.95
2022-12-22T01:51:29.679Z,48.35
2022-12-22T01:54:16.574Z,46.15
2022-12-22T01:57:03.593Z,37.22
2022-12-22T01:59:49.798Z,76.97
2022-12-22T02:02:37.555Z,65.07
2022-12-22T02:05:25.327Z,55.22
2022-12-22T02:08:22.822Z,45.67
2022-12-22T02:11:17.517Z,57.35
2022-12-22T02:14:27.749Z,57.45
2022-12-22T02:17:40.312Z,184.38
2022-12-22T02:20:31.774Z,59.05
2022-12-22T02:23:47.652Z,46.20
2022-12-22T02:26:46.386Z,44.33
2022-12-22T02:29:35.543Z,47.72
2022-12-22T02:32:21.206Z,41.45
2022-12-22T02:35:06.617Z,67.80
2022-12-22T02:38:39.882Z,161.45
2022-12-22T02:41:38.041Z,51.58
2022-12-22T02:44:35.552Z,48.88
2022-12-22T02:47:32.127Z,47.70
2022-12-22T02:50:27.715Z,71.38
2022-12-22T02:53:14.712Z,57.35
2022-12-22T02:56:00.079Z,89.85
2022-12-22T02:58:46.281Z,59.20
2022-12-22T03:01:31.617Z,49.78
2022-12-22T03:04:17.598Z,39.28
2022-12-22T03:09:48.638Z,41.55
2022-12-22T03:12:34.128Z,40.78
2022-12-22T03:15:19.786Z,53.97
2022-12-22T03:18:05.576Z,43.67
2022-12-22T03:20:51.044Z,42.40
2022-12-22T03:23:36.576Z,45.10
2022-12-22T03:26:03.509Z,46.53
2022-12-22T03:28:30.345Z,43.92
2022-12-22T03:31:00.749Z,64.13
2022-12-22T03:33:29.017Z,45.67
2022-12-22T03:35:56.141Z,53.85
2022-12-22T03:38:23.382Z,49.72
2022-12-22T03:40:50.396Z,54.30
2022-12-22T03:43:37.042Z,53.72
2022-12-22T03:46:16.675Z,50.60
2022-12-22T03:48:44.860Z,53.83
2022-12-22T03:51:11.680Z,54.83
2022-12-22T03:53:38.556Z,53.88
2022-12-22T03:56:07.982Z,53.65
2022-12-22T03:58:35.440Z,50.92
2022-12-22T04:01:11.381Z,50.78
2022-12-22T04:03:38.273Z,56.53
2022-12-22T04:06:05.326Z,60.90
2022-12-22T04:08:32.236Z,60.08
2022-12-22T04:11:17.564Z,67.05
2022-12-22T04:13:44.465Z,71.25
2022-12-22T04:16:11.320Z,69.72
2022-12-22T04:18:38.249Z,72.78
2022-12-22T04:21:05.282Z,77.32
2022-12-22T04:23:32.151Z,73.60
2022-12-22T04:25:59.988Z,78.85
2022-12-22T04:28:26.953Z,67.25
2022-12-22T04:30:53.789Z,118.40
2022-12-22T04:33:20.702Z,72.78
2022-12-22T04:35:47.567Z,75.72
2022-12-22T04:38:14.491Z,90.38
2022-12-22T04:40:41.436Z,81.15
2022-12-22T04:43:08.360Z,98.07
2022-12-22T04:45:35.268Z,76.55
2022-12-22T04:48:02.201Z,96.05
2022-12-22T04:50:29.063Z,81.10
2022-12-22T04:52:55.968Z,66.43
2022-12-22T04:55:22.789Z,91.82
2022-12-22T04:57:49.752Z,73.63
2022-12-22T05:00:17.004Z,81.13
2022-12-22T05:02:43.989Z,85.57
2022-12-22T05:05:11.038Z,76.22
2022-12-22T05:07:37.969Z,75.10
2022-12-22T05:10:05.779Z,74.18
2022-12-22T05:12:51.192Z,73.63
2022-12-22T05:15:18.116Z,76.18
2022-12-22T05:17:44.953Z,99.03
2022-12-22T05:20:11.945Z,69.20
2022-12-22T05:22:38.836Z,84.03
2022-12-22T05:25:07.158Z,68.20
2022-12-22T05:27:34.047Z,67.35
2022-12-22T05:30:01.001Z,63.22
2022-12-22T05:32:28.060Z,65.82
2022-12-22T05:34:55.051Z,70.80
2022-12-22T05:37:21.878Z,73.97
2022-12-22T05:39:48.768Z,77.25
2022-12-22T05:42:35.608Z,64.32
2022-12-22T05:45:15.046Z,63.95
2022-12-22T05:47:43.614Z,56.35
2022-12-22T05:50:13.315Z,62.42
2022-12-22T05:52:41.497Z,56.42
2022-12-22T05:55:09.610Z,54.00
2022-12-22T05:57:36.743Z,49.30
2022-12-22T06:00:06.853Z,31.70
2022-12-22T06:02:42.715Z,24.30
2022-12-22T06:05:12.433Z,21.90
2022-12-22T06:07:39.386Z,18.17
2022-12-22T06:10:11.898Z,19.45
2022-12-22T06:12:40.923Z,14.77
2022-12-22T06:15:10.757Z,16.75
2022-12-22T06:17:43.956Z,20.63
2022-12-22T06:20:12.609Z,21.90
2022-12-22T06:22:39.434Z,23.92
2022-12-22T06:25:06.600Z,16.52
2022-12-22T06:27:33.550Z,22.25
2022-12-22T06:30:00.456Z,23.25
2022-12-22T06:32:27.438Z,25.33
2022-12-22T06:34:54.432Z,25.70
2022-12-22T06:37:21.255Z,25.02
2022-12-22T06:39:48.193Z,26.10
2022-12-22T06:42:33.569Z,25.60
2022-12-22T06:45:00.467Z,26.65
2022-12-22T06:47:27.417Z,28.70
2022-12-22T06:49:54.338Z,28.42
2022-12-22T06:52:21.178Z,27.45
2022-12-22T06:54:48.174Z,27.95
2022-12-22T06:57:15.051Z,37.42
2022-12-22T06:59:42.243Z,35.20
2022-12-22T07:02:11.524Z,35.28
2022-12-22T07:04:38.685Z,30.73
2022-12-22T07:07:05.516Z,36.22
2022-12-22T07:09:32.428Z,46.63
2022-12-22T07:11:59.483Z,36.17
2022-12-22T07:14:26.402Z,40.33
2022-12-22T07:16:53.389Z,37.20
2022-12-22T07:19:20.521Z,38.08
2022-12-22T07:21:48.962Z,35.65
2022-12-22T07:24:23.230Z,42.85
2022-12-22T07:26:50.424Z,42.92
2022-12-22T07:29:17.339Z,34.05
2022-12-22T07:31:44.338Z,43.60
2022-12-22T07:34:12.056Z,43.42
2022-12-22T07:36:38.934Z,37.17
2022-12-22T07:39:05.833Z,35.38
2022-12-22T07:41:51.289Z,28.73
2022-12-22T07:44:18.364Z,34.45
2022-12-22T07:46:45.328Z,34.58
2022-12-22T07:49:30.830Z,34.05
2022-12-22T07:51:58.783Z,27.83
2022-12-22T07:54:26.804Z,34.22
2022-12-22T07:56:55.114Z,28.23
2022-12-22T07:59:22.406Z,36.67
2022-12-22T08:01:49.403Z,41.08
2022-12-22T08:04:17.368Z,37.75
2022-12-22T08:06:45.096Z,47.22
2022-12-22T08:09:15.898Z,52.10
2022-12-22T08:11:42.841Z,45.10
2022-12-22T08:14:09.756Z,45.38
2022-12-22T08:16:37.416Z,48.53
2022-12-22T08:19:04.729Z,47.10
2022-12-22T08:21:31.635Z,48.92
2022-12-22T08:23:58.583Z,58.13
2022-12-22T08:26:36.806Z,97.35
2022-12-22T08:29:12.850Z,119.93
2022-12-22T08:31:41.467Z,130.77
2022-12-22T08:34:12.598Z,127.75
2022-12-22T08:36:47.497Z,132.40
2022-12-22T08:39:16.362Z,117.35
2022-12-22T08:41:52.312Z,91.97
2022-12-22T08:44:25.515Z,67.68
2022-12-22T08:46:53.905Z,48.78
2022-12-22T08:49:21.510Z,48.58
2022-12-22T08:51:49.153Z,49.55
2022-12-22T08:54:16.570Z,57.67
2022-12-22T08:56:44.033Z,68.18
2022-12-22T08:59:11.420Z,70.75
2022-12-22T09:01:42.836Z,59.67
2022-12-22T09:04:12.872Z,61.13
2022-12-22T09:06:41.394Z,66.28
2022-12-22T09:09:10.460Z,72.55
2022-12-22T09:11:37.810Z,52.72
2022-12-22T09:14:05.717Z,60.33
2022-12-22T09:16:33.892Z,82.07
2022-12-22T09:19:01.653Z,64.80
2022-12-22T09:21:29.077Z,62.58
2022-12-22T09:23:57.009Z,64.90
2022-12-22T09:26:25.561Z,60.38
2022-12-22T09:28:53.075Z,71.40
2022-12-22T09:31:21.387Z,67.25
2022-12-22T09:33:48.637Z,64.45
2022-12-22T09:36:18.574Z,68.10
2022-12-22T09:38:48.209Z,67.70
2022-12-22T09:41:23.945Z,69.63
2022-12-22T09:43:51.411Z,67.13
2022-12-22T09:46:25.101Z,64.93
2022-12-22T09:48:53.544Z,67.32
2022-12-22T09:51:26.726Z,55.15
2022-12-22T09:53:59.039Z,54.08
2022-12-22T09:56:27.740Z,63.50
2022-12-22T09:58:55.044Z,53.65
2022-12-22T10:01:37.658Z,60.65
2022-12-22T10:04:09.785Z,63.10
2022-12-22T10:07:02.685Z,61.92
2022-12-22T10:12:23.139Z,56.08
2022-12-22T10:14:52.236Z,60.05
2022-12-22T10:17:19.143Z,58.63
2022-12-22T10:19:47.765Z,57.10
2022-12-22T10:22:47.889Z,53.20
2022-12-22T10:28:49.379Z,47.72
2022-12-22T10:31:22.955Z,46.17
2022-12-22T10:33:52.784Z,42.88
2022-12-22T10:36:27.402Z,44.10
2022-12-22T10:39:02.792Z,40.83
2022-12-22T10:44:21.370Z,41.58
2022-12-22T10:46:53.420Z,41.42
2022-12-22T10:49:22.014Z,42.20
2022-12-22T10:52:09.577Z,27.83
2022-12-22T10:54:36.835Z,29.20
2022-12-22T10:57:06.788Z,22.67
2022-12-22T10:59:46.451Z,27.77
2022-12-22T11:02:35.319Z,24.60
2022-12-22T11:05:06.249Z,23.42
2022-12-22T11:07:44.558Z,26.15
2022-12-22T11:10:14.494Z,24.98
2022-12-22T11:13:11.835Z,25.20
2022-12-22T11:16:08.936Z,27.50
2022-12-22T11:19:03.937Z,24.33
2022-12-22T11:21:50.794Z,28.10
2022-12-22T11:24:29.600Z,22.40
2022-12-22T11:27:02.530Z,20.35
2022-12-22T11:30:01.900Z,21.10
2022-12-22T11:32:43.763Z,19.63
2022-12-22T11:35:40.280Z,25.23
2022-12-22T11:38:33.174Z,23.17
2022-12-22T11:41:19.005Z,16.70
2022-12-22T11:44:11.743Z,25.08
2022-12-22T11:47:26.407Z,16.95
2022-12-22T11:51:02.251Z,17.90
2022-12-22T11:53:22.285Z,20.13
2022-12-22T11:56:38.622Z,19.55
2022-12-22T11:59:42.909Z,18.83
2022-12-22T12:02:31.645Z,21.30
2022-12-22T12:04:58.752Z,16.67
2022-12-22T12:07:35.072Z,15.10
2022-12-22T12:10:06.541Z,14.40
2022-12-22T12:12:48.836Z,17.15
2022-12-22T12:15:34.266Z,18.73
2022-12-22T12:18:13.955Z,20.30
2022-12-22T12:20:48.355Z,19.00
2022-12-22T12:24:03.868Z,14.82
2022-12-22T12:26:41.596Z,17.65
2022-12-22T12:29:20.214Z,17.00
2022-12-22T12:31:54.135Z,19.52
2022-12-22T12:34:22.727Z,17.77
2022-12-22T12:37:26.369Z,16.35
2022-12-22T12:40:25.252Z,16.92
2022-12-22T12:42:54.048Z,18.48
2022-12-22T12:45:34.643Z,16.98
2022-12-22T12:48:20.441Z,17.98
2022-12-22T12:50:49.266Z,18.38
2022-12-22T12:53:17.860Z,14.85
2022-12-22T12:55:55.201Z,14.95
2022-12-22T12:58:37.761Z,16.98
2022-12-22T13:01:05.960Z,15.98
2022-12-22T13:06:51.756Z,17.05
2022-12-22T13:09:51.844Z,17.25
2022-12-22T13:12:37.754Z,16.63
2022-12-22T13:15:05.128Z,18.08
2022-12-22T13:17:38.159Z,16.40
2022-12-22T13:20:11.344Z,15.32
2022-12-22T13:22:38.529Z,15.98
2022-12-22T13:25:05.982Z,11.82
2022-12-22T13:27:33.033Z,11.32
2022-12-22T13:30:00.338Z,12.13
2022-12-22T13:32:34.245Z,13.40
2022-12-22T13:35:33.734Z,17.40
2022-12-22T13:38:02.016Z,20.10
2022-12-22T13:40:47.323Z,14.35
2022-12-22T13:43:17.877Z,12.02
2022-12-22T13:45:55.373Z,12.35
2022-12-22T13:48:30.601Z,14.85
2022-12-22T13:51:03.124Z,12.55
2022-12-22T13:56:25.990Z,11.77
2022-12-22T13:59:02.132Z,12.50
2022-12-22T14:01:29.869Z,10.63
2022-12-22T14:04:04.225Z,11.98
2022-12-22T14:06:38.879Z,12.05
2022-12-22T14:09:14.939Z,15.98
2022-12-22T14:11:51.061Z,17.30
2022-12-22T14:14:25.676Z,12.20
2022-12-22T14:16:54.667Z,11.70
2022-12-22T14:19:23.223Z,11.77
2022-12-22T14:21:58.828Z,13.23
2022-12-22T14:24:37.748Z,10.27
2022-12-22T14:27:05.973Z,10.95
2022-12-22T14:29:32.877Z,14.60
2022-12-22T14:32:02.751Z,14.32
2022-12-22T14:34:32.253Z,16.13
2022-12-22T14:37:00.033Z,11.88
2022-12-22T14:39:32.294Z,13.98
2022-12-22T14:42:02.609Z,13.55
2022-12-22T14:44:34.457Z,18.13
2022-12-22T14:47:19.612Z,17.52
2022-12-22T14:50:00.573Z,19.80
2022-12-22T14:52:49.341Z,22.83
2022-12-22T14:55:31.367Z,27.75
2022-12-22T14:58:10.271Z,22.45
2022-12-22T15:00:40.723Z,26.88
2022-12-22T15:03:32.811Z,28.83
2022-12-22T15:06:25.262Z,25.85
2022-12-22T15:08:53.532Z,29.15
2022-12-22T15:11:23.064Z,22.52
2022-12-22T15:13:51.619Z,23.20
2022-12-22T15:16:20.531Z,24.33
2022-12-22T15:18:48.647Z,22.40
2022-12-22T15:21:17.569Z,36.40
2022-12-22T15:23:44.611Z,27.98
2022-12-22T15:26:11.999Z,27.38
2022-12-22T15:28:39.349Z,25.42
2022-12-22T15:31:14.443Z,28.33
2022-12-22T15:33:42.249Z,31.92
2022-12-22T15:36:12.038Z,28.67
2022-12-22T15:38:39.801Z,32.08
2022-12-22T15:41:07.466Z,36.70
2022-12-22T15:46:24.848Z,47.75
2022-12-22T15:48:52.071Z,42.65
2022-12-22T15:51:28.288Z,54.03
2022-12-22T15:53:56.838Z,51.58
2022-12-22T15:56:26.623Z,43.42
2022-12-22T15:58:53.898Z,43.20
2022-12-22T16:01:20.853Z,42.00
2022-12-22T16:03:47.873Z,42.53
2022-12-22T16:06:17.212Z,34.35
2022-12-22T16:08:49.616Z,34.25
2022-12-22T16:11:18.102Z,41.15
2022-12-22T16:13:45.487Z,30.73
2022-12-22T16:16:12.727Z,26.88
2022-12-22T16:18:39.762Z,30.02
2022-12-22T16:21:19.909Z,51.95
2022-12-22T16:23:49.132Z,41.58
2022-12-22T16:26:20.515Z,34.08
2022-12-22T16:28:48.151Z,30.58
2022-12-22T16:31:18.203Z,33.50
2022-12-22T16:33:45.257Z,38.70
2022-12-22T16:36:12.273Z,39.47
2022-12-22T16:38:39.816Z,42.67
2022-12-22T16:41:17.045Z,49.95
2022-12-22T16:46:28.265Z,54.45
2022-12-22T16:48:59.953Z,49.55
2022-12-22T16:51:33.838Z,53.15
2022-12-22T16:54:02.495Z,49.40
2022-12-22T16:56:31.280Z,57.60
2022-12-22T16:58:59.222Z,55.67
2022-12-22T17:01:40.444Z,53.22
2022-12-22T17:04:12.582Z,49.75
2022-12-22T17:06:41.343Z,56.47
2022-12-22T17:09:16.202Z,64.07
2022-12-22T17:11:46.544Z,48.08
2022-12-22T17:14:39.376Z,62.78
2022-12-22T17:17:12.244Z,46.72
2022-12-22T17:19:39.796Z,47.45
2022-12-22T17:22:30.092Z,40.85
2022-12-22T17:25:01.366Z,45.78
2022-12-22T17:27:31.570Z,40.75
2022-12-22T17:30:05.207Z,42.53
2022-12-22T17:32:32.982Z,37.47
2022-12-22T17:35:02.941Z,36.05
2022-12-22T17:37:30.551Z,38.58
2022-12-22T17:40:01.968Z,45.60
2022-12-22T17:42:35.575Z,40.80
2022-12-22T17:45:03.248Z,33.08
2022-12-22T17:47:34.812Z,41.97
2022-12-22T17:50:07.968Z,33.67
2022-12-22T17:52:35.474Z,34.67
2022-12-22T17:55:05.213Z,38.47
2022-12-22T17:57:35.824Z,42.38
2022-12-22T18:00:03.614Z,35.80
2022-12-22T18:02:38.696Z,44.70
2022-12-22T18:05:06.070Z,39.58
2022-12-22T18:07:43.524Z,40.65
2022-12-22T18:10:31.688Z,39.67
2022-12-22T18:13:02.015Z,40.50
2022-12-22T18:15:32.574Z,37.80
2022-12-22T18:18:00.568Z,33.65
2022-12-22T18:20:29.576Z,41.00
2022-12-22T18:23:02.150Z,43.17
2022-12-22T18:25:33.696Z,34.35
2022-12-22T18:28:01.338Z,32.42
2022-12-22T18:30:30.226Z,39.95
2022-12-22T18:32:58.869Z,35.35
2022-12-22T18:35:29.472Z,37.97
2022-12-22T18:37:58.916Z,31.35
2022-12-22T18:40:38.636Z,36.63
2022-12-22T18:43:13.773Z,29.73
2022-12-22T18:45:41.608Z,33.33
2022-12-22T18:48:09.393Z,29.20
2022-12-22T18:50:37.092Z,27.02
2022-12-22T18:53:17.872Z,27.58
2022-12-22T18:55:46.061Z,30.60
2022-12-22T18:58:15.308Z,26.52
2022-12-22T19:00:43.780Z,30.80
2022-12-22T19:03:23.021Z,35.47
2022-12-22T19:05:50.822Z,36.92
2022-12-22T19:08:23.907Z,27.02
2022-12-22T19:10:55.958Z,33.13
2022-12-22T19:13:28.558Z,29.05
2022-12-22T19:15:57.306Z,30.77
2022-12-22T19:18:27.270Z,31.67
2022-12-22T19:20:59.158Z,30.92
2022-12-22T19:23:27.029Z,28.40
2022-12-22T19:26:02.219Z,30.48
2022-12-22T19:28:44.256Z,29.40
2022-12-22T19:31:23.142Z,34.85
2022-12-22T19:33:51.438Z,31.92
2022-12-22T19:36:27.180Z,36.70
2022-12-22T19:39:04.054Z,41.85
2022-12-22T19:41:35.108Z,28.40
2022-12-22T19:44:02.405Z,31.15
2022-12-22T19:46:33.387Z,37.60
2022-12-22T19:49:00.799Z,35.90
2022-12-22T19:51:27.669Z,44.05
2022-12-22T19:53:54.693Z,38.38
2022-12-22T19:56:25.560Z,40.03
2022-12-22T19:58:54.097Z,34.58
2022-12-22T20:01:21.469Z,34.80
2022-12-22T20:03:48.634Z,40.65
2022-12-22T20:06:15.467Z,37.15
2022-12-22T20:08:42.331Z,39.17
2022-12-22T20:11:15.002Z,39.72
2022-12-22T20:13:42.805Z,33.30
2022-12-22T20:16:13.775Z,39.03
2022-12-22T20:18:41.301Z,43.40
2022-12-22T20:21:15.930Z,39.67
2022-12-22T20:23:43.149Z,32.67
2022-12-22T20:26:16.252Z,38.13
2022-12-22T20:28:43.330Z,35.25
2022-12-22T20:31:14.320Z,42.35
2022-12-22T20:33:41.809Z,32.95
2022-12-22T20:36:31.761Z,39.45
2022-12-22T20:39:00.017Z,38.05
2022-12-22T20:41:27.475Z,37.88
2022-12-22T20:43:54.740Z,31.30
2022-12-22T20:46:25.188Z,34.70
2022-12-22T20:48:56.195Z,36.53
2022-12-22T20:51:25.736Z,36.67
2022-12-22T20:53:53.235Z,33.00
2022-12-22T20:56:29.871Z,31.20
2022-12-22T20:58:58.393Z,30.55
2022-12-22T21:01:25.485Z,46.10
2022-12-22T21:03:52.793Z,34.10
2022-12-22T21:06:37.589Z,32.53
2022-12-22T21:09:05.352Z,34.97
2022-12-22T21:11:32.296Z,31.85
2022-12-22T21:13:59.469Z,36.22
2022-12-22T21:16:29.972Z,36.17
2022-12-22T21:18:57.083Z,30.45
2022-12-22T21:21:24.205Z,44.60
2022-12-22T21:23:51.408Z,37.03
2022-12-22T21:26:42.784Z,47.08
2022-12-22T21:29:15.684Z,40.03
2022-12-22T21:31:42.629Z,37.47
2022-12-22T21:34:11.425Z,42.35
2022-12-22T21:36:39.956Z,31.77
2022-12-22T21:39:32.206Z,37.63
2022-12-22T21:42:03.163Z,37.47
2022-12-22T21:44:32.229Z,33.33
2022-12-22T21:46:59.784Z,40.70
2022-12-22T21:49:29.706Z,31.13
2022-12-22T21:51:56.802Z,43.15
2022-12-22T21:54:25.112Z,27.20
2022-12-22T21:56:53.576Z,33.22
2022-12-22T21:59:21.248Z,37.65
2022-12-22T22:01:49.293Z,38.42
2022-12-22T22:04:16.213Z,31.02
2022-12-22T22:06:43.095Z,31.33
2022-12-22T22:09:10.148Z,34.25
2022-12-22T22:11:57.034Z,33.65
2022-12-22T22:14:24.326Z,29.30
2022-12-22T22:16:51.484Z,30.40
2022-12-22T22:19:18.534Z,27.65
2022-12-22T22:21:46.302Z,38.88
2022-12-22T22:24:13.655Z,39.70
2022-12-22T22:26:40.650Z,29.20
2022-12-22T22:29:07.554Z,34.08
2022-12-22T22:31:34.552Z,32.60
2022-12-22T22:34:01.580Z,30.15
2022-12-22T22:36:28.474Z,29.85
2022-12-22T22:38:55.512Z,32.80
2022-12-22T22:41:22.367Z,39.72
2022-12-22T22:43:49.282Z,32.83
2022-12-22T22:46:16.131Z,33.60
2022-12-22T22:48:43.079Z,34.40
2022-12-22T22:51:10.656Z,30.52
2022-12-22T22:53:37.529Z,31.45
2022-12-22T22:56:04.733Z,39.20
2022-12-22T22:58:31.711Z,29.25
2022-12-22T23:01:10.351Z,34.22
2022-12-22T23:03:37.804Z,28.58
2022-12-22T23:06:10.602Z,32.72
2022-12-22T23:08:37.747Z,41.67
2022-12-22T23:11:05.769Z,42.22
2022-12-22T23:13:32.973Z,33.75
2022-12-22T23:16:02.411Z,38.47
2022-12-22T23:18:30.732Z,34.65
2022-12-22T23:20:58.700Z,38.70
2022-12-22T23:23:25.626Z,29.50
2022-12-22T23:25:52.572Z,32.75
2022-12-22T23:28:19.938Z,36.60
2022-12-22T23:30:49.581Z,31.92
2022-12-22T23:33:17.064Z,36.85
2022-12-22T23:35:47.379Z,38.05
2022-12-22T23:38:15.638Z,39.72
2022-12-22T23:40:52.186Z,40.47
2022-12-22T23:43:20.471Z,34.78
2022-12-22T23:45:47.353Z,36.63
2022-12-22T23:48:14.940Z,31.80
2022-12-22T23:50:42.014Z,34.75
2022-12-22T23:53:08.900Z,38.42
2022-12-22T23:55:35.744Z,32.70
2022-12-22T23:58:02.713Z,38.85
